createdAt,value
2023-03-20T00:02:06.890Z,62592.00
2023-03-20T00:04:34.262Z,62621.22
2023-03-20T00:07:00.933Z,62602.09
2023-03-20T00:09:28.438Z,62579.91
2023-03-20T00:11:56.050Z,62603.16
2023-03-20T00:14:25.206Z,62636.88
2023-03-20T00:16:52.322Z,62634.69
2023-03-20T00:19:23.283Z,62619.72
2023-03-20T00:21:51.736Z,62591.34
2023-03-20T00:24:18.559Z,62620.56
2023-03-20T00:26:46.709Z,62630.19
2023-03-20T00:29:21.767Z,62623.81
2023-03-20T00:31:49.038Z,62625.03
2023-03-20T00:34:19.508Z,62615.66
2023-03-20T00:36:46.518Z,62622.19
2023-03-20T00:39:13.220Z,62592.81
2023-03-20T00:41:39.786Z,62616.31
2023-03-20T00:44:21.832Z,62621.09
2023-03-20T00:47:00.640Z,62606.94
2023-03-20T00:49:35.432Z,62629.25
2023-03-20T00:52:04.460Z,62613.63
2023-03-20T00:54:32.095Z,62628.28
2023-03-20T00:57:08.018Z,62636.72
2023-03-20T00:59:38.403Z,62629.22
2023-03-20T01:02:05.212Z,62624.91
2023-03-20T01:04:40.364Z,62593.38
2023-03-20T01:07:10.748Z,62630.88
2023-03-20T01:09:37.428Z,62635.78
2023-03-20T01:12:05.557Z,62631.44
2023-03-20T01:14:32.188Z,62599.06
2023-03-20T01:16:58.803Z,62615.22
2023-03-20T01:19:25.461Z,62596.09
2023-03-20T01:21:52.110Z,62618.38
2023-03-20T01:24:18.765Z,62591.88
2023-03-20T01:26:46.617Z,62621.63
2023-03-20T01:29:20.662Z,62629.38
2023-03-20T01:31:48.335Z,62626.25
2023-03-20T01:34:16.656Z,62636.88
2023-03-20T01:36:51.611Z,62626.94
2023-03-20T01:39:21.748Z,62614.44
2023-03-20T01:41:49.484Z,62621.63
2023-03-20T01:44:24.235Z,62634.16
2023-03-20T01:46:53.833Z,62615.66
2023-03-20T01:49:20.694Z,62626.53
2023-03-20T01:51:52.258Z,62621.34
2023-03-20T01:54:27.008Z,62610.22
2023-03-20T01:57:23.075Z,62624.34
2023-03-20T02:00:15.697Z,62618.38
2023-03-20T02:02:45.743Z,62589.56
2023-03-20T02:05:16.549Z,62608.59
2023-03-20T02:07:48.938Z,62605.34
2023-03-20T02:10:17.072Z,62616.75
2023-03-20T02:12:44.520Z,62599.91
2023-03-20T02:15:14.815Z,62560.25
2023-03-20T02:17:42.737Z,62571.13
2023-03-20T02:20:15.741Z,62593.91
2023-03-20T02:23:16.416Z,62585.91
2023-03-20T02:25:52.007Z,62597.72
2023-03-20T02:28:44.158Z,62580.06
2023-03-20T02:31:37.094Z,62584.69
2023-03-20T02:34:21.986Z,62582.66
2023-03-20T02:37:00.746Z,62575.59
2023-03-20T02:39:58.239Z,62576.53
2023-03-20T02:42:39.247Z,62579.78
2023-03-20T02:45:22.808Z,62577.22
2023-03-20T02:47:59.734Z,62570.56
2023-03-20T02:50:55.601Z,62560.38
2023-03-20T02:53:51.526Z,62555.91
2023-03-20T02:56:37.632Z,62560.78
2023-03-20T02:59:27.122Z,62554.81
2023-03-20T03:02:01.942Z,62567.84
2023-03-20T03:04:35.753Z,62550.47
2023-03-20T03:07:06.757Z,62534.72
2023-03-20T03:09:43.174Z,62516.38
2023-03-20T03:12:18.167Z,62546.13
2023-03-20T03:14:52.946Z,62531.31
2023-03-20T03:17:24.261Z,62539.59
2023-03-20T03:19:54.496Z,62546.13
2023-03-20T03:22:21.608Z,62503.38
2023-03-20T03:24:51.161Z,62525.47
2023-03-20T03:27:29.101Z,62543.94
2023-03-20T03:29:59.366Z,62537.56
2023-03-20T03:32:38.154Z,62536.34
2023-03-20T03:35:07.081Z,62538.09
2023-03-20T03:38:03.618Z,62555.91
2023-03-20T03:40:39.161Z,62556.97
2023-03-20T03:43:21.861Z,62561.31
2023-03-20T03:45:55.108Z,62556.44
2023-03-20T03:48:26.475Z,62548.56
2023-03-20T03:51:02.078Z,62542.31
2023-03-20T03:53:36.640Z,62547.22
2023-03-20T03:56:07.120Z,62567.84
2023-03-20T03:58:37.052Z,62544.06
2023-03-20T04:01:07.797Z,62542.47
2023-03-20T04:03:39.555Z,62527.13
2023-03-20T04:06:10.143Z,62546.81
2023-03-20T04:08:36.723Z,62543.00
2023-03-20T04:11:03.565Z,62515.28
2023-03-20T04:13:30.194Z,62509.19
2023-03-20T04:15:57.452Z,62507.72
2023-03-20T04:18:24.956Z,62490.88
2023-03-20T04:20:52.518Z,62520.63
2023-03-20T04:23:19.142Z,62509.75
2023-03-20T04:25:45.765Z,62509.19
2023-03-20T04:28:12.430Z,62527.25
2023-03-20T04:30:39.226Z,62504.44
2023-03-20T04:33:05.886Z,62502.53
2023-03-20T04:35:32.460Z,62526.16
2023-03-20T04:37:59.097Z,62539.59
2023-03-20T04:40:26.099Z,62530.38
2023-03-20T04:42:52.695Z,62518.97
2023-03-20T04:45:20.543Z,62508.38
2023-03-20T04:47:47.121Z,62484.78
2023-03-20T04:50:14.290Z,62501.06
2023-03-20T04:52:40.957Z,62488.16
2023-03-20T04:55:08.083Z,62497.25
2023-03-20T04:57:34.781Z,62497.94
2023-03-20T05:00:01.433Z,62507.16
2023-03-20T05:02:28.087Z,62499.56
2023-03-20T05:04:54.793Z,62483.81
2023-03-20T05:07:21.949Z,62464.69
2023-03-20T05:09:48.624Z,62480.44
2023-03-20T05:12:15.402Z,62489.66
2023-03-20T05:14:41.979Z,62504.31
2023-03-20T05:17:08.770Z,62491.28
2023-03-20T05:19:35.672Z,62508.66
2023-03-20T05:22:02.331Z,62497.81
2023-03-20T05:24:29.248Z,62511.38
2023-03-20T05:26:55.959Z,62493.59
2023-03-20T05:29:23.057Z,62503.25
2023-03-20T05:31:49.732Z,62488.16
2023-03-20T05:34:16.394Z,62521.69
2023-03-20T05:36:42.986Z,62500.66
2023-03-20T05:39:09.635Z,62477.72
2023-03-20T05:41:36.615Z,62504.31
2023-03-20T05:44:03.245Z,62498.47
2023-03-20T05:46:29.923Z,62529.00
2023-03-20T05:48:56.599Z,62539.59
2023-03-20T05:51:23.304Z,62547.75
2023-03-20T05:53:49.910Z,62526.16
2023-03-20T05:56:16.616Z,62552.22
2023-03-20T05:58:43.363Z,62567.84
2023-03-20T06:01:10.055Z,62557.66
2023-03-20T06:03:37.020Z,62577.09
2023-03-20T06:06:04.716Z,62584.81
2023-03-20T06:08:31.450Z,62571.63
2023-03-20T06:10:58.026Z,62571.13
2023-03-20T06:13:24.613Z,62581.44
2023-03-20T06:15:51.359Z,62577.63
2023-03-20T06:18:17.988Z,62581.44
2023-03-20T06:20:44.641Z,62604.25
2023-03-20T06:23:11.228Z,62580.34
2023-03-20T06:25:38.813Z,62585.75
2023-03-20T06:28:05.764Z,62585.22
2023-03-20T06:30:32.367Z,62595.69
2023-03-20T06:32:59.013Z,62593.09
2023-03-20T06:35:25.692Z,62611.31
2023-03-20T06:37:52.309Z,62615.91
2023-03-20T06:40:19.101Z,62633.03
2023-03-20T06:42:45.760Z,62620.69
2023-03-20T06:45:12.442Z,62622.19
2023-03-20T06:47:39.191Z,62644.47
2023-03-20T06:50:06.395Z,62652.63
2023-03-20T06:52:33.078Z,62673.94
2023-03-20T06:54:59.718Z,62664.16
2023-03-20T06:57:26.338Z,62663.63
2023-03-20T06:59:53.747Z,62696.66
2023-03-20T07:02:20.979Z,62683.72
2023-03-20T07:04:47.608Z,62714.06
2023-03-20T07:07:14.438Z,62709.19
2023-03-20T07:09:41.059Z,62733.13
2023-03-20T07:12:14.535Z,62727.78
2023-03-20T07:14:45.323Z,62740.75
2023-03-20T07:17:13.247Z,62729.84
2023-03-20T07:19:39.949Z,62750.09
2023-03-20T07:22:12.027Z,62736.38
2023-03-20T07:24:38.655Z,62760.31
2023-03-20T07:27:05.283Z,62741.41
2023-03-20T07:29:31.883Z,62769.59
2023-03-20T07:32:01.112Z,62793.53
2023-03-20T07:34:27.774Z,62794.63
2023-03-20T07:36:57.016Z,62777.72
2023-03-20T07:39:24.016Z,62795.69
2023-03-20T07:41:50.778Z,62784.25
2023-03-20T07:44:19.373Z,62794.06
2023-03-20T07:46:47.318Z,62816.94
2023-03-20T07:49:18.592Z,62837.09
2023-03-20T07:51:46.721Z,62833.28
2023-03-20T07:54:13.864Z,62847.44
2023-03-20T07:56:40.685Z,62806.03
2023-03-20T07:59:07.669Z,62875.22
2023-03-20T08:01:34.352Z,62866.63
2023-03-20T08:04:01.138Z,62893.75
2023-03-20T08:06:27.914Z,62863.78
2023-03-20T08:08:54.924Z,62845.81
2023-03-20T08:11:21.791Z,62857.91
2023-03-20T08:13:48.372Z,62879.03
2023-03-20T08:16:15.052Z,62860.25
2023-03-20T08:18:42.615Z,62877.41
2023-03-20T08:21:09.266Z,62876.31
2023-03-20T08:23:35.964Z,62924.28
2023-03-20T08:26:02.640Z,62919.94
2023-03-20T08:28:46.238Z,62901.38
2023-03-20T08:31:13.804Z,62924.78
2023-03-20T08:33:40.674Z,62939.09
2023-03-20T08:36:07.888Z,62940.06
2023-03-20T08:38:34.685Z,62991.38
2023-03-20T08:41:01.273Z,62948.78
2023-03-20T08:43:27.899Z,62935.16
2023-03-20T08:45:55.280Z,62970.63
2023-03-20T08:48:22.057Z,62934.19
2023-03-20T08:50:49.318Z,62944.97
2023-03-20T08:53:16.165Z,62992.44
2023-03-20T08:55:50.997Z,62976.72
2023-03-20T08:58:18.954Z,62993.09
2023-03-20T09:00:45.816Z,62966.91
2023-03-20T09:03:17.652Z,63011.53
2023-03-20T09:05:45.501Z,62998.97
2023-03-20T09:08:12.477Z,63032.78
2023-03-20T09:10:40.726Z,63006.59
2023-03-20T09:13:25.770Z,63008.81
2023-03-20T09:15:54.794Z,63063.94
2023-03-20T09:18:22.210Z,63033.88
2023-03-20T09:20:49.554Z,63091.78
2023-03-20T09:23:16.260Z,63095.59
2023-03-20T09:25:42.892Z,63122.34
2023-03-20T09:28:09.585Z,63128.38
2023-03-20T09:30:36.773Z,63164.41
2023-03-20T09:33:03.668Z,63156.81
2023-03-20T09:35:30.256Z,63137.63
2023-03-20T09:37:56.896Z,63134.97
2023-03-20T09:40:30.695Z,63138.78
2023-03-20T09:43:16.137Z,63103.50
2023-03-20T09:45:53.554Z,63080.28
2023-03-20T09:48:46.564Z,63083.00
2023-03-20T09:51:31.505Z,63071.41
2023-03-20T09:54:05.961Z,63096.13
2023-03-20T09:56:32.698Z,63061.19
2023-03-20T09:59:03.413Z,63148.06
2023-03-20T10:01:47.689Z,63186.31
2023-03-20T10:04:14.769Z,63170.41
2023-03-20T10:06:41.420Z,63225.63
2023-03-20T10:09:21.197Z,63203.09
2023-03-20T10:11:59.076Z,63185.78
2023-03-20T10:14:49.888Z,63172.59
2023-03-20T10:17:37.695Z,63185.22
2023-03-20T10:20:31.349Z,63122.34
2023-03-20T10:23:12.674Z,63146.97
2023-03-20T10:26:12.917Z,63145.84
2023-03-20T10:28:57.548Z,63181.34
2023-03-20T10:31:42.441Z,63231.13
2023-03-20T10:34:46.716Z,63278.19
2023-03-20T10:37:32.526Z,63269.41
2023-03-20T10:40:27.526Z,63333.44
2023-03-20T10:42:59.187Z,63244.81
2023-03-20T10:45:46.551Z,63232.25
2023-03-20T10:48:21.157Z,63306.56
2023-03-20T10:50:53.720Z,63332.28
2023-03-20T10:53:40.910Z,63357.47
2023-03-20T10:56:17.063Z,63263.41
2023-03-20T10:58:48.373Z,63312.59
2023-03-20T11:01:15.085Z,63369.56
2023-03-20T11:03:42.741Z,63211.44
2023-03-20T11:06:17.764Z,63295.63
2023-03-20T11:08:52.282Z,63365.56
2023-03-20T11:11:34.768Z,63436.41
2023-03-20T11:14:16.151Z,63475.31
2023-03-20T11:16:42.918Z,63466.00
2023-03-20T11:19:11.988Z,63496.06
2023-03-20T11:21:57.151Z,63444.63
2023-03-20T11:24:34.139Z,63390.94
2023-03-20T11:27:10.891Z,63490.66
2023-03-20T11:29:39.114Z,63468.13
2023-03-20T11:32:22.397Z,63422.16
2023-03-20T11:34:49.780Z,63494.44
2023-03-20T11:37:26.061Z,63495.00
2023-03-20T11:40:07.861Z,63526.84
2023-03-20T11:42:37.305Z,63428.69
2023-03-20T11:45:07.552Z,63457.72
2023-03-20T11:47:36.192Z,63509.66
2023-03-20T11:50:06.569Z,63545.47
2023-03-20T11:52:37.259Z,63549.31
2023-03-20T11:55:08.631Z,63446.63
2023-03-20T11:57:39.600Z,63403.00
2023-03-20T12:00:12.781Z,63370.06
2023-03-20T12:02:43.694Z,63399.94
2023-03-20T12:05:34.109Z,63459.38
2023-03-20T12:08:18.538Z,63423.78
2023-03-20T12:10:52.886Z,63399.69
2023-03-20T12:13:28.992Z,63459.78
2023-03-20T12:16:01.653Z,63456.13
2023-03-20T12:18:41.216Z,63350.91
2023-03-20T12:21:36.161Z,63332.28
2023-03-20T12:24:26.276Z,63358.03
2023-03-20T12:27:05.083Z,63344.88
2023-03-20T12:29:47.826Z,63359.66
2023-03-20T12:32:23.598Z,63333.41
2023-03-20T12:34:54.824Z,63354.78
2023-03-20T12:37:22.662Z,63326.81
2023-03-20T12:39:55.485Z,63336.69
2023-03-20T12:42:22.447Z,63319.75
2023-03-20T12:44:55.880Z,63282.50
2023-03-20T12:47:53.393Z,63272.66
2023-03-20T12:50:29.263Z,63264.44
2023-03-20T12:53:16.065Z,63266.09
2023-03-20T12:55:59.236Z,63279.28
2023-03-20T12:58:41.883Z,63226.75
2023-03-20T13:01:21.352Z,63218.53
2023-03-20T13:04:06.359Z,63256.28
2023-03-20T13:07:07.432Z,63212.00
2023-03-20T13:10:15.814Z,63202.00
2023-03-20T13:13:15.052Z,63173.19
2023-03-20T13:15:47.697Z,63175.88
2023-03-20T13:18:45.193Z,63173.16
2023-03-20T13:21:19.544Z,63170.47
2023-03-20T13:24:06.202Z,63171.56
2023-03-20T13:26:32.872Z,63168.81
2023-03-20T13:29:11.613Z,63149.16
2023-03-20T13:32:13.866Z,63091.19
2023-03-20T13:35:09.086Z,63125.09
2023-03-20T13:37:41.918Z,63118.53
2023-03-20T13:40:20.839Z,63117.47
2023-03-20T13:42:47.418Z,63132.75
2023-03-20T13:45:28.915Z,63101.59
2023-03-20T13:48:01.176Z,63074.84
2023-03-20T13:50:42.073Z,63055.72
2023-03-20T13:53:24.449Z,63100.06
2023-03-20T13:56:22.746Z,63079.31
2023-03-20T13:59:03.106Z,63100.50
2023-03-20T14:01:41.642Z,63085.75
2023-03-20T14:04:17.952Z,63062.38
2023-03-20T14:06:50.120Z,63077.03
2023-03-20T14:09:35.027Z,63058.47
2023-03-20T14:12:06.381Z,63090.69
2023-03-20T14:14:42.129Z,63048.63
2023-03-20T14:17:22.487Z,63043.84
2023-03-20T14:19:50.898Z,63044.38
2023-03-20T14:22:23.878Z,63021.91
2023-03-20T14:25:00.777Z,63015.91
2023-03-20T14:27:43.229Z,63025.72
2023-03-20T14:30:39.146Z,63009.38
2023-03-20T14:33:27.002Z,63009.38
2023-03-20T14:36:20.840Z,62979.88
2023-03-20T14:39:18.802Z,62984.25
2023-03-20T14:42:05.950Z,62957.50
2023-03-20T14:44:52.788Z,62983.72
2023-03-20T14:47:47.185Z,62963.63
2023-03-20T14:50:45.746Z,62982.06
2023-03-20T14:53:20.152Z,62972.81
2023-03-20T14:55:55.987Z,62977.16
2023-03-20T14:58:43.823Z,62986.44
2023-03-20T15:01:20.878Z,62961.91
2023-03-20T15:04:28.993Z,62939.53
2023-03-20T15:07:14.261Z,62950.97
2023-03-20T15:09:44.285Z,62935.28
2023-03-20T15:12:17.826Z,62914.47
2023-03-20T15:14:48.825Z,62906.28
2023-03-20T15:17:22.212Z,62909.00
2023-03-20T15:19:52.164Z,62890.59
2023-03-20T15:22:20.612Z,62897.00
2023-03-20T15:24:57.131Z,62898.09
2023-03-20T15:27:29.567Z,62857.22
2023-03-20T15:29:57.750Z,62871.97
2023-03-20T15:32:25.221Z,62886.13
2023-03-20T15:34:52.283Z,62883.97
2023-03-20T15:37:23.588Z,62870.31
2023-03-20T15:39:55.503Z,62851.78
2023-03-20T15:42:24.876Z,62853.97
2023-03-20T15:44:53.801Z,62834.34
2023-03-20T15:47:23.445Z,62806.06
2023-03-20T15:49:58.591Z,62784.25
2023-03-20T15:52:39.339Z,62802.34
2023-03-20T15:55:17.427Z,62759.22
2023-03-20T15:57:47.228Z,62784.28
2023-03-20T16:00:23.756Z,62791.91
2023-03-20T16:02:50.723Z,62762.50
2023-03-20T16:05:18.858Z,62781.03
2023-03-20T16:07:45.710Z,62750.50
2023-03-20T16:10:18.108Z,62743.44
2023-03-20T16:12:50.964Z,62760.31
2023-03-20T16:15:19.466Z,62753.25
2023-03-20T16:17:47.681Z,62723.03
2023-03-20T16:20:16.819Z,62708.75
2023-03-20T16:22:45.198Z,62695.16
2023-03-20T16:25:18.602Z,62720.63
2023-03-20T16:27:51.852Z,62698.84
2023-03-20T16:30:24.705Z,62664.03
2023-03-20T16:32:59.120Z,62660.91
2023-03-20T16:35:45.433Z,62671.66
2023-03-20T16:38:22.802Z,62653.16
2023-03-20T16:40:54.190Z,62646.63
2023-03-20T16:43:28.014Z,62625.56
2023-03-20T16:45:57.052Z,62627.47
2023-03-20T16:48:23.732Z,62612.53
2023-03-20T16:51:00.344Z,62547.19
2023-03-20T16:53:37.284Z,62594.72
2023-03-20T16:56:05.481Z,62574.91
2023-03-20T16:58:35.377Z,62560.78
2023-03-20T17:01:05.674Z,62546.25
2023-03-20T17:03:40.061Z,62539.59
2023-03-20T17:06:27.490Z,62533.63
2023-03-20T17:09:14.056Z,62508.66
2023-03-20T17:11:47.622Z,62502.28
2023-03-20T17:14:14.366Z,62469.56
2023-03-20T17:16:41.904Z,62470.81
2023-03-20T17:19:15.383Z,62479.91
2023-03-20T17:21:42.856Z,62441.38
2023-03-20T17:24:10.998Z,62444.34
2023-03-20T17:26:39.886Z,62435.00
2023-03-20T17:29:06.856Z,62462.41
2023-03-20T17:31:33.620Z,62389.84
2023-03-20T17:34:00.373Z,62414.25
2023-03-20T17:36:30.302Z,62370.34
2023-03-20T17:38:58.287Z,62358.94
2023-03-20T17:41:25.637Z,62363.41
2023-03-20T17:43:52.645Z,62344.31
2023-03-20T17:46:21.105Z,62334.03
2023-03-20T17:48:49.105Z,62339.44
2023-03-20T17:51:16.031Z,62312.88
2023-03-20T17:53:43.690Z,62286.63
2023-03-20T17:56:12.831Z,62291.63
2023-03-20T17:58:40.008Z,62304.63
2023-03-20T18:01:09.156Z,62289.06
2023-03-20T18:03:36.447Z,62269.16
2023-03-20T18:06:04.086Z,62270.22
2023-03-20T18:08:30.963Z,62262.66
2023-03-20T18:10:57.993Z,62252.22
2023-03-20T18:13:26.463Z,62256.81
2023-03-20T18:15:56.845Z,62231.25
2023-03-20T18:18:24.275Z,62239.25
2023-03-20T18:20:52.318Z,62238.69
2023-03-20T18:23:19.012Z,62211.38
2023-03-20T18:25:45.714Z,62191.06
2023-03-20T18:28:23.088Z,62203.91
2023-03-20T18:30:50.815Z,62207.31
2023-03-20T18:33:17.673Z,62197.03
2023-03-20T18:35:44.916Z,62191.06
2023-03-20T18:38:14.705Z,62161.19
2023-03-20T18:40:43.823Z,62160.91
2023-03-20T18:51:14.144Z,62141.28
2023-03-20T18:53:41.643Z,62100.75
